Time;durP1;ratioP1;P1;durP2;ratioP2;P2;SDS_P1;SDS_P2;PMS_P1;PMS_P2;Temp;Humidity;BMP_temperature;BMP_pressure;BME280_temperature;BME280_humidity;BME280_pressure;Samples;Min_cycle;Max_cycle;Signal;HPM_P1;HPM_P2
2024/01/05 00:02:07;;;;;;;1.90;1.90;;;21.30;54.80;;;;;;4938161;29;20461;-63
2024/01/05 00:04:34;;;;;;;2.10;2.03;;;21.30;54.90;;;;;;4938185;29;20497;-63
2024/01/05 00:07:01;;;;;;;2.10;2.00;;;21.30;54.90;;;;;;4938142;29;20474;-62
2024/01/05 00:09:27;;;;;;;2.93;2.67;;;21.30;54.90;;;;;;4938234;29;20941;-63
2024/01/05 00:11:54;;;;;;;2.53;2.43;;;21.30;55.00;;;;;;4938028;29;20862;-63
2024/01/05 00:14:21;;;;;;;2.97;2.77;;;21.20;54.90;;;;;;4937900;29;20505;-63
2024/01/05 00:16:50;;;;;;;2.33;2.23;;;21.20;55.00;;;;;;4952309;29;20484;-63
2024/01/05 00:19:16;;;;;;;2.10;2.00;;;21.20;55.00;;;;;;4957132;28;20480;-63
2024/01/05 00:21:43;;;;;;;2.20;2.00;;;21.20;55.00;;;;;;4956901;29;20487;-63
2024/01/05 00:24:10;;;;;;;2.60;2.40;;;21.20;55.00;;;;;;4957007;29;20501;-63
2024/01/05 00:26:41;;;;;;;2.10;2.00;;;21.20;55.00;;;;;;4952305;29;20512;-63
2024/01/05 00:29:08;;;;;;;2.63;2.43;;;21.20;55.10;;;;;;4955537;28;20444;-63
2024/01/05 00:31:35;;;;;;;2.50;2.40;;;21.20;55.10;;;;;;4956821;29;20468;-63
2024/01/05 00:34:03;;;;;;;3.27;3.00;;;21.20;55.10;;;;;;4956781;29;20489;-63
2024/01/05 00:36:30;;;;;;;1.90;1.90;;;21.10;55.10;;;;;;4944843;29;20496;-63
2024/01/05 00:38:57;;;;;;;2.33;2.23;;;21.20;55.20;;;;;;4937596;29;20496;-63
2024/01/05 00:41:24;;;;;;;1.80;1.80;;;21.20;55.20;;;;;;4937082;29;20482;-63
2024/01/05 00:43:51;;;;;;;1.83;1.80;;;21.20;55.70;;;;;;4937353;29;20457;-63
2024/01/05 00:46:18;;;;;;;2.43;2.33;;;21.20;55.20;;;;;;4946652;29;20492;-63
2024/01/05 00:48:45;;;;;;;2.00;1.90;;;21.10;55.20;;;;;;4956610;28;20468;-63
2024/01/05 00:51:13;;;;;;;2.10;2.00;;;21.10;55.20;;;;;;4956253;29;20532;-63
2024/01/05 00:53:40;;;;;;;2.23;2.13;;;21.10;55.20;;;;;;4956249;29;20444;-63
2024/01/05 00:56:07;;;;;;;2.33;2.23;;;21.10;55.30;;;;;;4948250;28;20508;-63
2024/01/05 00:58:34;;;;;;;2.20;2.10;;;21.10;55.30;;;;;;4937021;29;21079;-63
2024/01/05 01:01:01;;;;;;;2.40;2.10;;;21.10;55.30;;;;;;4936678;29;20874;-63
2024/01/05 01:03:28;;;;;;;2.40;2.30;;;21.10;55.30;;;;;;4936840;29;20865;-63
2024/01/05 01:05:54;;;;;;;2.30;2.30;;;21.10;55.30;;;;;;4936713;29;20882;-63
2024/01/05 01:08:23;;;;;;;2.73;2.53;;;21.10;55.30;;;;;;4936837;29;20930;-63
2024/01/05 01:10:50;;;;;;;2.70;2.57;;;21.10;55.30;;;;;;4936677;29;20533;-63
2024/01/05 01:13:17;;;;;;;1.90;1.90;;;21.10;55.40;;;;;;4936977;29;20485;-63
2024/01/05 01:15:44;;;;;;;2.30;2.20;;;21.10;55.40;;;;;;4953706;29;20496;-63
2024/01/05 01:18:09;;;;;;;2.03;2.03;;;21.00;55.40;;;;;;4955737;29;20544;-63
2024/01/05 01:20:36;;;;;;;2.30;2.20;;;21.00;55.40;;;;;;4955590;29;20456;-63
2024/01/05 01:23:03;;;;;;;2.27;2.13;;;21.10;55.50;;;;;;4945894;28;20634;-63
2024/01/05 01:25:32;;;;;;;5.00;2.53;;;21.10;55.50;;;;;;4936528;29;20920;-63
2024/01/05 01:27:59;;;;;;;2.00;2.00;;;21.10;55.50;;;;;;4936445;29;20504;-63
2024/01/05 01:30:25;;;;;;;2.27;2.17;;;21.00;55.40;;;;;;4936488;29;20507;-63
2024/01/05 01:32:52;;;;;;;2.07;2.07;;;21.10;55.50;;;;;;4936851;29;20481;-63
2024/01/05 01:35:19;;;;;;;2.00;2.00;;;21.00;55.50;;;;;;4936215;29;20496;-63
2024/01/05 01:37:46;;;;;;;2.80;2.07;;;21.00;55.50;;;;;;4936228;29;20517;-63
2024/01/05 01:40:14;;;;;;;2.27;1.90;;;21.00;55.60;;;;;;4935539;29;20473;-63
2024/01/05 01:42:46;;;;;;;2.07;1.97;;;21.00;55.60;;;;;;4942155;29;20456;-63
2024/01/05 01:45:13;;;;;;;3.37;2.10;;;21.00;55.60;;;;;;4944265;28;20465;-63
2024/01/05 01:47:40;;;;;;;2.43;2.33;;;21.00;55.60;;;;;;4935968;29;20501;-63
2024/01/05 01:50:08;;;;;;;4.50;2.50;;;21.00;55.60;;;;;;4936004;29;20476;-63
2024/01/05 01:52:37;;;;;;;2.50;2.40;;;21.00;55.60;;;;;;4940818;28;20476;-63
2024/01/05 01:55:04;;;;;;;2.00;1.90;;;21.00;55.60;;;;;;4954967;28;20615;-63
2024/01/05 01:57:32;;;;;;;2.10;2.00;;;21.00;55.60;;;;;;4954951;29;20516;-63
2024/01/05 02:00:00;;;;;;;2.10;2.10;;;21.00;55.60;;;;;;4955001;29;20476;-63
2024/01/05 02:02:28;;;;;;;2.13;2.07;;;21.00;55.60;;;;;;4954029;29;20498;-63
2024/01/05 02:04:57;;;;;;;4.50;2.53;;;20.90;55.60;;;;;;4955070;29;20827;-63
2024/01/05 02:07:24;;;;;;;2.73;2.50;;;20.90;55.60;;;;;;4954992;28;20865;-63
2024/01/05 02:09:51;;;;;;;2.40;2.30;;;21.00;55.90;;;;;;4954911;29;20444;-62
2024/01/05 02:12:18;;;;;;;2.10;2.10;;;20.90;55.60;;;;;;4941523;28;20481;-63
2024/01/05 02:14:45;;;;;;;2.13;2.10;;;21.00;55.70;;;;;;4935581;29;21043;-63
2024/01/05 02:17:28;;;;;;;2.30;2.20;;;20.90;55.60;;;;;;4935666;29;20491;-63
2024/01/05 02:19:55;;;;;;;2.50;2.30;;;20.90;55.60;;;;;;4935600;29;20477;-63
2024/01/05 02:22:23;;;;;;;2.17;2.17;;;20.90;55.60;;;;;;4948948;29;20939;-63
2024/01/05 02:24:52;;;;;;;2.40;2.30;;;20.90;55.60;;;;;;4954760;29;20500;-63
2024/01/05 02:27:19;;;;;;;2.47;2.37;;;20.90;55.60;;;;;;4955232;28;20468;-63
2024/01/05 02:29:46;;;;;;;2.27;2.17;;;20.90;55.70;;;;;;4954925;29;20440;-63
2024/01/05 02:32:13;;;;;;;1.97;1.87;;;20.90;55.70;;;;;;4942026;29;20485;-63
2024/01/05 02:34:39;;;;;;;2.37;2.30;;;20.90;55.70;;;;;;4935544;29;20544;-63
2024/01/05 02:37:06;;;;;;;2.20;2.10;;;20.90;55.70;;;;;;4935244;29;20481;-63
2024/01/05 02:39:33;;;;;;;2.67;2.57;;;20.90;55.70;;;;;;4935334;29;20532;-63
2024/01/05 02:42:02;;;;;;;2.20;2.10;;;20.90;55.70;;;;;;4935544;29;20481;-63
2024/01/05 02:44:28;;;;;;;2.10;2.10;;;20.90;55.70;;;;;;4935471;29;20469;-62
2024/01/05 02:46:55;;;;;;;1.87;1.87;;;20.90;55.80;;;;;;4935405;29;20492;-63
2024/01/05 02:49:22;;;;;;;2.10;1.90;;;20.80;55.70;;;;;;4935714;29;20477;-63
2024/01/05 02:51:49;;;;;;;2.30;2.20;;;20.90;55.80;;;;;;4946520;28;20477;-63
2024/01/05 02:54:16;;;;;;;2.27;2.17;;;20.90;55.80;;;;;;4958396;28;20504;-63
2024/01/05 02:56:43;;;;;;;2.10;2.00;;;20.90;55.80;;;;;;4958532;29;20451;-63
2024/01/05 02:59:12;;;;;;;2.30;2.20;;;20.90;55.90;;;;;;4958312;28;20516;-62
2024/01/05 03:01:39;;;;;;;2.40;2.23;;;20.90;55.90;;;;;;4950566;28;20446;-63
2024/01/05 03:04:05;;;;;;;2.17;2.13;;;20.90;55.90;;;;;;4939130;29;20984;-63
2024/01/05 03:06:32;;;;;;;2.10;2.10;;;20.90;55.90;;;;;;4939126;29;20449;-63
2024/01/05 03:08:59;;;;;;;2.83;2.53;;;20.90;55.90;;;;;;4939046;29;20476;-63
2024/01/05 03:11:26;;;;;;;2.73;2.53;;;20.90;55.90;;;;;;4957252;28;20484;-63
2024/01/05 03:13:53;;;;;;;2.30;2.20;;;20.80;55.80;;;;;;4957820;29;20487;-63
2024/01/05 03:16:21;;;;;;;2.00;2.00;;;20.90;55.90;;;;;;4958166;29;20476;-63
2024/01/05 03:18:48;;;;;;;2.80;2.70;;;20.90;55.90;;;;;;4957944;29;20520;-63
2024/01/05 03:21:15;;;;;;;2.20;2.20;;;20.90;55.90;;;;;;4957521;29;20468;-63
2024/01/05 03:23:42;;;;;;;2.30;2.00;;;20.80;55.80;;;;;;4957955;29;20472;-63
2024/01/05 03:26:09;;;;;;;2.53;2.33;;;20.90;55.90;;;;;;4957743;28;20496;-63
2024/01/05 03:28:38;;;;;;;2.80;2.60;;;20.90;55.90;;;;;;4948841;28;20437;-63
2024/01/05 03:31:05;;;;;;;1.80;1.80;;;20.80;55.80;;;;;;4938686;29;20454;-63
2024/01/05 03:33:33;;;;;;;2.30;2.10;;;20.90;55.90;;;;;;4938572;29;20473;-63
2024/01/05 03:36:00;;;;;;;1.90;1.80;;;20.90;55.90;;;;;;4938333;29;20548;-63
2024/01/05 03:38:27;;;;;;;1.80;1.80;;;20.90;55.90;;;;;;4938780;29;20509;-63
2024/01/05 03:40:53;;;;;;;2.50;2.40;;;20.80;55.80;;;;;;4938446;29;20527;-63
2024/01/05 03:43:20;;;;;;;2.00;2.00;;;20.90;55.90;;;;;;4938593;29;20485;-63
2024/01/05 03:45:47;;;;;;;2.63;2.27;;;20.90;55.90;;;;;;4938255;29;20517;-63
2024/01/05 03:48:15;;;;;;;2.20;2.10;;;20.90;55.90;;;;;;4938737;29;20469;-63
2024/01/05 03:50:43;;;;;;;2.03;2.03;;;20.90;55.90;;;;;;4938420;29;20534;-62
2024/01/05 03:53:10;;;;;;;2.63;2.53;;;20.80;55.80;;;;;;4938170;29;20488;-62
2024/01/05 03:55:37;;;;;;;2.90;2.70;;;20.90;55.90;;;;;;4938129;29;20473;-63
2024/01/05 03:58:04;;;;;;;2.70;1.97;;;20.80;55.80;;;;;;4941697;28;20597;-63
2024/01/05 04:00:31;;;;;;;2.53;2.43;;;20.80;55.80;;;;;;4957133;29;20480;-62
2024/01/05 04:02:58;;;;;;;2.37;2.13;;;20.80;55.80;;;;;;4955917;28;20535;-63
2024/01/05 04:05:26;;;;;;;2.20;2.10;;;20.80;55.80;;;;;;4957258;29;20511;-63
2024/01/05 04:07:54;;;;;;;1.87;1.80;;;20.80;55.80;;;;;;4954958;28;20446;-63
2024/01/05 04:10:21;;;;;;;2.23;2.23;;;20.80;55.80;;;;;;4937832;29;20870;-62
2024/01/05 04:12:48;;;;;;;3.00;2.90;;;20.90;55.90;;;;;;4937948;29;20496;-63
2024/01/05 04:15:15;;;;;;;2.03;1.93;;;20.80;55.80;;;;;;4937671;29;20501;-63
2024/01/05 04:17:41;;;;;;;2.00;2.00;;;20.80;55.80;;;;;;4938146;29;20456;-63
2024/01/05 04:20:09;;;;;;;3.27;2.10;;;20.80;55.80;;;;;;4956703;29;20480;-63
2024/01/05 04:22:37;;;;;;;3.30;3.00;;;20.80;55.80;;;;;;4956888;28;20483;-63
2024/01/05 04:25:05;;;;;;;2.60;2.40;;;20.80;55.80;;;;;;4956662;29;20495;-63
2024/01/05 04:27:32;;;;;;;2.80;2.70;;;20.80;55.80;;;;;;4956630;29;20489;-62
2024/01/05 04:29:59;;;;;;;2.70;2.40;;;20.80;55.80;;;;;;4938210;29;20476;-63
2024/01/05 04:32:26;;;;;;;1.90;1.90;;;20.80;56.40;;;;;;4937726;29;20485;-64
2024/01/05 04:34:53;;;;;;;1.83;1.80;;;20.80;55.80;;;;;;4937430;29;20497;-63
2024/01/05 04:37:20;;;;;;;2.07;2.07;;;20.80;55.80;;;;;;4937523;29;20478;-63
2024/01/05 04:39:46;;;;;;;2.13;2.13;;;20.80;55.80;;;;;;4937377;29;20568;-63
2024/01/05 04:42:15;;;;;;;2.70;2.60;;;20.80;55.80;;;;;;4937267;29;20539;-63
2024/01/05 04:44:42;;;;;;;1.90;1.90;;;20.80;55.90;;;;;;4937146;29;20470;-63
2024/01/05 04:47:09;;;;;;;2.50;2.40;;;20.80;55.90;;;;;;4945501;29;20480;-63
2024/01/05 04:49:36;;;;;;;2.30;2.20;;;20.80;55.90;;;;;;4956338;29;20472;-63
2024/01/05 04:52:03;;;;;;;2.03;1.93;;;20.80;55.90;;;;;;4956410;29;20472;-63
2024/01/05 04:54:30;;;;;;;1.80;1.80;;;20.80;56.00;;;;;;4956152;28;20496;-63
2024/01/05 04:56:58;;;;;;;2.40;2.30;;;20.80;56.00;;;;;;4955622;28;20472;-63
2024/01/05 04:59:27;;;;;;;1.90;1.90;;;20.80;55.90;;;;;;4956264;28;20510;-63
2024/01/05 05:01:53;;;;;;;2.17;2.17;;;20.90;56.00;;;;;;4956258;28;20467;-63
2024/01/05 05:04:20;;;;;;;2.80;2.70;;;20.80;56.00;;;;;;4955867;28;20908;-63
2024/01/05 05:06:47;;;;;;;2.50;2.40;;;20.80;55.90;;;;;;4950295;29;20500;-63
2024/01/05 05:09:14;;;;;;;2.47;2.37;;;20.80;55.90;;;;;;4936628;29;20481;-63
2024/01/05 05:11:41;;;;;;;2.70;2.60;;;20.80;56.00;;;;;;4936536;29;20481;-63
2024/01/05 05:14:08;;;;;;;2.53;2.43;;;20.90;56.10;;;;;;4935810;29;20445;-63
2024/01/05 05:16:36;;;;;;;2.20;2.20;;;20.90;56.10;;;;;;4952814;29;20488;-62
2024/01/05 05:19:04;;;;;;;2.23;2.23;;;20.90;56.00;;;;;;4955698;28;21011;-63
2024/01/05 05:21:32;;;;;;;2.67;2.50;;;20.90;56.10;;;;;;4955483;28;20452;-63
2024/01/05 05:23:59;;;;;;;2.40;2.40;;;20.90;56.10;;;;;;4955581;28;20500;-63
2024/01/05 05:26:26;;;;;;;3.10;2.90;;;20.90;56.00;;;;;;4939860;29;20480;-63
2024/01/05 05:28:53;;;;;;;2.83;2.20;;;20.90;56.10;;;;;;4936289;29;20476;-63
2024/01/05 05:31:20;;;;;;;2.47;2.37;;;20.90;56.10;;;;;;4936230;29;20454;-63
2024/01/05 05:33:48;;;;;;;2.63;2.43;;;20.90;56.10;;;;;;4936220;29;20496;-63
2024/01/05 05:36:15;;;;;;;2.77;2.50;;;20.90;56.10;;;;;;4949452;29;21015;-63
2024/01/05 05:38:42;;;;;;;2.80;2.60;;;21.00;56.20;;;;;;4954974;28;20543;-61
2024/01/05 05:41:08;;;;;;;2.20;2.20;;;20.90;56.10;;;;;;4954666;28;20944;-61
2024/01/05 05:43:35;;;;;;;2.30;2.20;;;20.90;56.10;;;;;;4948821;29;20491;-62
2024/01/05 05:46:02;;;;;;;3.13;3.03;;;21.00;56.20;;;;;;4935321;29;20469;-61
2024/01/05 05:48:29;;;;;;;2.10;2.00;;;20.90;56.10;;;;;;4935681;29;20476;-61
2024/01/05 05:50:57;;;;;;;2.07;2.07;;;20.90;56.10;;;;;;4935258;29;20446;-61
2024/01/05 05:53:24;;;;;;;2.33;2.20;;;21.00;56.20;;;;;;4938799;29;20469;-63
2024/01/05 05:55:52;;;;;;;2.63;2.43;;;21.00;56.00;;;;;;4954232;28;20532;-62
2024/01/05 05:58:19;;;;;;;2.83;2.60;;;21.00;55.90;;;;;;4954443;28;20511;-61
2024/01/05 06:00:45;;;;;;;10.23;3.80;;;21.10;56.10;;;;;;4954344;29;20508;-62
2024/01/05 06:03:12;;;;;;;10.83;4.13;;;21.10;56.70;;;;;;4951984;28;20480;-61
2024/01/05 06:05:39;;;;;;;12.00;4.33;;;21.10;57.30;;;;;;4935036;29;20504;-62
2024/01/05 06:08:08;;;;;;;15.70;5.60;;;21.20;58.20;;;;;;4935257;29;20505;-62
2024/01/05 06:10:34;;;;;;;10.80;4.70;;;21.20;59.60;;;;;;4934888;29;20492;-59
2024/01/05 06:13:02;;;;;;;11.77;4.53;;;21.20;61.30;;;;;;4941735;29;20910;-65
2024/01/05 06:15:29;;;;;;;8.03;4.70;;;21.20;63.20;;;;;;4934634;29;20856;-64
2024/01/05 06:17:56;;;;;;;10.53;5.40;;;21.30;61.40;;;;;;4934644;29;20510;-65
2024/01/05 06:20:23;;;;;;;14.03;4.40;;;21.30;60.90;;;;;;4934597;29;20528;-65
2024/01/05 06:22:50;;;;;;;8.87;5.60;;;21.40;60.60;;;;;;4934627;29;20958;-65
2024/01/05 06:25:18;;;;;;;18.53;7.30;;;21.40;60.20;;;;;;4933920;29;20911;-65
2024/01/05 06:27:45;;;;;;;11.57;4.73;;;21.50;60.60;;;;;;4934544;29;20975;-64
2024/01/05 06:30:12;;;;;;;12.43;4.70;;;21.50;59.60;;;;;;4934576;29;20792;-64
2024/01/05 06:32:39;;;;;;;10.50;5.37;;;21.50;59.30;;;;;;4934574;29;20474;-64
2024/01/05 06:35:07;;;;;;;6.13;3.90;;;21.50;59.10;;;;;;4934503;29;20505;-64
2024/01/05 06:37:34;;;;;;;7.77;4.60;;;21.50;58.80;;;;;;4934369;29;20449;-64
2024/01/05 06:40:00;;;;;;;8.10;3.97;;;21.60;58.70;;;;;;4934272;29;20517;-64
2024/01/05 06:42:29;;;;;;;9.87;3.43;;;21.60;58.50;;;;;;4934302;29;20485;-64
2024/01/05 06:44:56;;;;;;;3.87;3.53;;;21.60;58.30;;;;;;4934396;29;20508;-64
2024/01/05 06:47:22;;;;;;;4.93;3.73;;;21.60;58.20;;;;;;4934453;29;20488;-64
2024/01/05 06:49:49;;;;;;;6.33;3.80;;;21.60;58.00;;;;;;4934320;29;20477;-64
2024/01/05 06:52:16;;;;;;;8.77;3.80;;;21.60;57.90;;;;;;4934313;29;20481;-64
2024/01/05 06:54:43;;;;;;;4.60;3.70;;;21.60;57.70;;;;;;4934238;29;20816;-63
2024/01/05 06:57:10;;;;;;;3.77;3.47;;;21.70;57.70;;;;;;4934236;29;20454;-64
2024/01/05 06:59:39;;;;;;;6.20;3.50;;;21.70;57.50;;;;;;4934126;29;20524;-64
2024/01/05 07:02:06;;;;;;;6.30;4.57;;;21.70;57.40;;;;;;4934244;29;20449;-64
2024/01/05 07:04:33;;;;;;;5.90;3.67;;;21.70;57.40;;;;;;4934088;29;21036;-64
2024/01/05 07:07:00;;;;;;;3.97;3.57;;;21.70;57.20;;;;;;4934242;29;20881;-64
2024/01/05 07:09:27;;;;;;;5.30;4.47;;;21.70;57.10;;;;;;4934233;29;20473;-64
2024/01/05 07:11:54;;;;;;;5.90;4.20;;;21.70;57.00;;;;;;4934377;29;20481;-64
2024/01/05 07:14:20;;;;;;;5.17;3.63;;;21.70;56.90;;;;;;4934535;29;20508;-63
2024/01/05 07:16:49;;;;;;;6.27;3.60;;;21.70;56.80;;;;;;4934705;29;20500;-64
2024/01/05 07:19:15;;;;;;;5.07;4.60;;;21.70;56.80;;;;;;4934654;29;20521;-64
2024/01/05 07:21:43;;;;;;;7.83;4.90;;;21.70;56.70;;;;;;4934715;29;20480;-63
2024/01/05 07:24:10;;;;;;;4.30;3.30;;;21.70;56.60;;;;;;4934490;29;20209;-64
2024/01/05 07:26:37;;;;;;;8.43;4.60;;;21.70;56.50;;;;;;4935268;29;20897;-65
2024/01/05 07:29:04;;;;;;;5.00;3.77;;;21.70;56.50;;;;;;4935080;29;20584;-64
2024/01/05 07:31:31;;;;;;;8.10;3.30;;;21.70;56.40;;;;;;4934928;29;20473;-64
2024/01/05 07:33:59;;;;;;;4.33;3.23;;;21.70;56.30;;;;;;4934860;29;20450;-64
2024/01/05 07:36:26;;;;;;;5.03;3.93;;;21.70;56.30;;;;;;4935102;29;20473;-64
2024/01/05 07:38:53;;;;;;;6.07;5.03;;;21.70;56.20;;;;;;4938387;29;20524;-64
2024/01/05 07:41:20;;;;;;;4.00;3.63;;;21.70;56.20;;;;;;4938281;29;20485;-64
2024/01/05 07:43:47;;;;;;;3.33;3.10;;;21.70;56.10;;;;;;4938547;29;20836;-64
2024/01/05 07:46:13;;;;;;;5.17;3.80;;;21.70;56.10;;;;;;4938099;29;20507;-64
2024/01/05 07:48:41;;;;;;;8.13;3.87;;;21.80;56.10;;;;;;4938229;29;20863;-65
2024/01/05 07:51:10;;;;;;;7.23;4.60;;;21.80;56.10;;;;;;4937501;29;20438;-64
2024/01/05 07:53:38;;;;;;;6.33;3.00;;;21.70;55.90;;;;;;4937189;29;20454;-61
2024/01/05 07:56:06;;;;;;;14.90;3.60;;;21.70;55.90;;;;;;4937097;29;20529;-63
2024/01/05 07:58:33;;;;;;;3.70;3.40;;;21.80;55.90;;;;;;4937282;29;20977;-64
2024/01/05 08:01:00;;;;;;;4.10;3.80;;;21.70;55.70;;;;;;4937261;29;20528;-65
2024/01/05 08:03:27;;;;;;;3.57;3.10;;;21.70;55.70;;;;;;4938056;29;20450;-64
2024/01/05 08:05:54;;;;;;;6.40;2.70;;;21.70;55.60;;;;;;4938002;29;20474;-64
2024/01/05 08:08:22;;;;;;;4.10;3.37;;;21.80;55.60;;;;;;4938204;29;20854;-64
2024/01/05 08:10:49;;;;;;;2.90;2.80;;;21.70;55.50;;;;;;4937939;29;20477;-64
2024/01/05 08:13:18;;;;;;;3.00;2.80;;;21.70;55.40;;;;;;4937673;29;20504;-63
2024/01/05 08:15:44;;;;;;;3.23;3.13;;;21.70;55.40;;;;;;4936618;29;20902;-63
2024/01/05 08:18:11;;;;;;;2.70;2.60;;;21.70;55.30;;;;;;4936813;29;20477;-62
2024/01/05 08:20:38;;;;;;;3.07;2.87;;;21.70;55.20;;;;;;4936598;29;20521;-64
2024/01/05 08:23:05;;;;;;;3.63;3.00;;;21.70;55.10;;;;;;4936714;29;20481;-64
2024/01/05 08:25:33;;;;;;;3.63;3.30;;;21.70;55.10;;;;;;4936622;29;20476;-64
2024/01/05 08:28:02;;;;;;;4.00;3.00;;;21.70;55.00;;;;;;4936587;29;20477;-64
2024/01/05 08:30:30;;;;;;;3.83;3.40;;;21.70;55.00;;;;;;4936578;29;20819;-64
2024/01/05 08:32:57;;;;;;;3.17;3.00;;;21.70;54.90;;;;;;4937639;29;20484;-64
2024/01/05 08:35:24;;;;;;;2.50;2.40;;;21.70;54.90;;;;;;4937421;29;20560;-64
2024/01/05 08:37:51;;;;;;;2.57;2.47;;;21.70;54.80;;;;;;4937464;29;20469;-64
2024/01/05 08:40:19;;;;;;;2.97;2.77;;;21.70;54.80;;;;;;4937300;29;20477;-64
2024/01/05 08:42:47;;;;;;;4.17;3.00;;;21.70;54.70;;;;;;4937080;29;20478;-65
2024/01/05 08:45:16;;;;;;;3.20;2.90;;;21.70;55.20;;;;;;4937410;29;21012;-65
2024/01/05 08:47:43;;;;;;;3.23;2.90;;;21.70;54.70;;;;;;4937222;29;20452;-62
2024/01/05 08:50:10;;;;;;;3.20;2.90;;;21.60;54.50;;;;;;4935683;29;20481;-64
2024/01/05 08:52:37;;;;;;;4.00;3.70;;;21.70;54.60;;;;;;4936067;29;20488;-64
2024/01/05 08:55:04;;;;;;;3.07;2.23;;;21.70;54.50;;;;;;4936031;29;20941;-64
2024/01/05 08:57:31;;;;;;;2.87;2.67;;;21.70;54.50;;;;;;4936184;29;20477;-64
2024/01/05 09:00:00;;;;;;;3.10;2.90;;;21.70;54.40;;;;;;4935914;29;20520;-64
2024/01/05 09:02:27;;;;;;;2.20;2.20;;;21.70;54.40;;;;;;4935932;29;20481;-63
2024/01/05 09:04:54;;;;;;;2.70;2.50;;;21.60;54.20;;;;;;4935937;29;20497;-64
2024/01/05 09:07:21;;;;;;;2.90;2.70;;;21.60;54.20;;;;;;4936224;29;20445;-64
2024/01/05 09:09:48;;;;;;;3.57;3.33;;;21.60;54.10;;;;;;4935819;29;20481;-64
2024/01/05 09:12:15;;;;;;;2.50;2.40;;;21.60;54.00;;;;;;4935791;29;20481;-64
2024/01/05 09:14:41;;;;;;;3.20;3.00;;;21.60;54.00;;;;;;4935566;29;21001;-64
2024/01/05 09:17:10;;;;;;;2.77;2.67;;;21.60;53.90;;;;;;4935774;29;20960;-64
2024/01/05 09:19:37;;;;;;;2.57;2.57;;;21.60;53.90;;;;;;4935581;29;20521;-64
2024/01/05 09:22:04;;;;;;;3.10;2.90;;;21.60;53.80;;;;;;4935472;29;20489;-64
2024/01/05 09:24:31;;;;;;;3.07;2.87;;;21.60;53.90;;;;;;4935553;29;20465;-64
2024/01/05 09:26:58;;;;;;;3.13;3.03;;;21.60;53.80;;;;;;4935605;29;20541;-64
2024/01/05 09:29:25;;;;;;;3.50;3.30;;;21.60;53.80;;;;;;4935551;29;20488;-63
2024/01/05 09:31:52;;;;;;;2.73;2.60;;;21.60;53.80;;;;;;4935337;29;20555;-64
2024/01/05 09:34:20;;;;;;;3.10;3.00;;;21.60;53.70;;;;;;4935336;29;20500;-64
2024/01/05 09:36:47;;;;;;;3.37;3.27;;;21.50;53.60;;;;;;4935496;29;20902;-64
2024/01/05 09:39:14;;;;;;;3.30;3.00;;;21.50;53.60;;;;;;4935293;29;20456;-65
2024/01/05 09:41:42;;;;;;;3.03;2.63;;;21.50;53.50;;;;;;4935188;29;20532;-64
2024/01/05 09:44:11;;;;;;;2.70;2.60;;;21.50;53.50;;;;;;4935145;29;20579;-64
2024/01/05 09:46:40;;;;;;;4.30;3.17;;;21.50;53.50;;;;;;4935348;29;20450;-64
2024/01/05 09:49:08;;;;;;;2.60;2.50;;;21.50;53.40;;;;;;4935211;29;20481;-64
2024/01/05 09:51:37;;;;;;;2.70;2.60;;;21.50;53.40;;;;;;4935070;29;20453;-64
2024/01/05 09:54:04;;;;;;;2.73;2.50;;;21.50;53.40;;;;;;4934982;29;20488;-64
2024/01/05 09:56:32;;;;;;;2.70;2.60;;;21.50;53.40;;;;;;4935088;29;20482;-64
2024/01/05 09:59:00;;;;;;;2.80;2.60;;;21.50;53.40;;;;;;4935084;29;20870;-64
2024/01/05 10:01:28;;;;;;;2.80;2.63;;;21.50;53.40;;;;;;4934093;29;20490;-63
2024/01/05 10:03:56;;;;;;;4.10;2.47;;;21.40;53.30;;;;;;4934981;29;20449;-64
2024/01/05 10:06:25;;;;;;;2.20;2.20;;;21.40;53.30;;;;;;4934880;29;20445;-64
2024/01/05 10:08:54;;;;;;;3.37;3.27;;;21.40;53.20;;;;;;4934793;29;20965;-64
2024/01/05 10:11:31;;;;;;;2.93;2.80;;;21.40;53.20;;;;;;4934790;29;20438;-64
2024/01/05 10:14:00;;;;;;;2.30;2.20;;;21.40;53.10;;;;;;4934581;29;20477;-64
2024/01/05 10:16:34;;;;;;;2.50;2.50;;;21.40;53.10;;;;;;4934999;29;20445;-64
2024/01/05 10:19:12;;;;;;;3.03;2.83;;;21.40;53.10;;;;;;4934688;29;20461;-64
2024/01/05 10:21:39;;;;;;;2.63;2.63;;;21.40;53.00;;;;;;4934564;29;20485;-65
2024/01/05 10:24:15;;;;;;;2.30;2.30;;;21.40;53.00;;;;;;4934618;29;20453;-65
2024/01/05 10:26:42;;;;;;;2.87;2.77;;;21.40;52.90;;;;;;4934685;29;20445;-65
2024/01/05 10:29:14;;;;;;;2.23;2.23;;;21.40;52.90;;;;;;4934620;29;20969;-64
2024/01/05 10:31:41;;;;;;;2.40;2.30;;;21.40;52.90;;;;;;4934501;29;20442;-65
2024/01/05 10:34:09;;;;;;;2.73;2.63;;;21.40;52.90;;;;;;4934489;29;20476;-65
2024/01/05 10:36:36;;;;;;;2.53;2.53;;;21.30;52.80;;;;;;4934416;29;20457;-65
2024/01/05 10:39:04;;;;;;;2.50;2.50;;;21.30;52.80;;;;;;4934403;29;20508;-64
2024/01/05 10:41:32;;;;;;;2.40;2.40;;;21.30;52.70;;;;;;4934213;29;20485;-64
2024/01/05 10:43:59;;;;;;;2.80;2.80;;;21.30;52.70;;;;;;4934403;29;20457;-64
2024/01/05 10:46:26;;;;;;;2.33;2.33;;;21.30;52.70;;;;;;4934405;29;20489;-64
2024/01/05 10:48:55;;;;;;;2.60;2.50;;;21.30;52.70;;;;;;4934346;29;20470;-64
2024/01/05 10:51:23;;;;;;;2.60;2.50;;;21.30;52.60;;;;;;4934143;29;20941;-64
2024/01/05 10:53:50;;;;;;;2.30;2.30;;;21.30;52.60;;;;;;4934342;29;20464;-64
2024/01/05 10:56:18;;;;;;;2.43;2.43;;;21.30;52.60;;;;;;4934320;29;20508;-62
2024/01/05 10:58:49;;;;;;;2.60;2.50;;;21.30;52.60;;;;;;4934265;29;20499;-63
2024/01/05 11:01:19;;;;;;;2.20;2.20;;;21.30;52.50;;;;;;4934182;29;20864;-64
2024/01/05 11:03:48;;;;;;;2.20;2.10;;;21.30;52.50;;;;;;4934536;29;20806;-64
2024/01/05 11:06:16;;;;;;;2.33;2.33;;;21.30;52.50;;;;;;4934133;29;21023;-63
2024/01/05 11:09:02;;;;;;;2.30;2.30;;;21.30;52.50;;;;;;4934143;29;20481;-63
2024/01/05 11:11:41;;;;;;;2.30;2.30;;;21.30;52.50;;;;;;4934357;29;20448;-64
2024/01/05 11:14:30;;;;;;;2.10;2.10;;;21.20;52.40;;;;;;4937843;29;20496;-64
2024/01/05 11:17:25;;;;;;;2.30;2.30;;;21.20;52.40;;;;;;4938020;29;20449;-64
2024/01/05 11:20:02;;;;;;;2.57;2.47;;;21.20;52.30;;;;;;4937752;29;20481;-64
2024/01/05 11:22:31;;;;;;;2.10;2.10;;;21.20;52.30;;;;;;4937756;29;20477;-64
2024/01/05 11:24:59;;;;;;;2.20;2.10;;;21.20;52.30;;;;;;4937793;29;21026;-63
2024/01/05 11:27:29;;;;;;;2.50;2.47;;;21.20;52.30;;;;;;4937697;29;20446;-64
2024/01/05 11:29:58;;;;;;;2.57;2.53;;;21.20;52.30;;;;;;4937700;29;20464;-64
2024/01/05 11:32:38;;;;;;;2.30;2.30;;;21.20;52.30;;;;;;4937650;29;20445;-64
2024/01/05 11:35:43;;;;;;;2.60;2.50;;;21.20;52.30;;;;;;4937611;29;20465;-65
2024/01/05 11:38:27;;;;;;;2.10;2.10;;;21.20;52.30;;;;;;4937592;29;20509;-64
2024/01/05 11:40:54;;;;;;;2.40;2.40;;;21.20;52.30;;;;;;4937821;29;20523;-64
2024/01/05 11:43:35;;;;;;;2.37;2.37;;;21.20;52.20;;;;;;4938234;29;20481;-64
2024/01/05 11:46:04;;;;;;;2.13;2.13;;;21.10;52.20;;;;;;4938111;29;20778;-64
2024/01/05 11:48:47;;;;;;;2.30;2.30;;;21.20;52.20;;;;;;4938232;29;20505;-64
2024/01/05 11:51:14;;;;;;;2.63;2.63;;;21.10;52.10;;;;;;4938084;29;20869;-64
2024/01/05 11:53:41;;;;;;;2.43;2.37;;;21.10;52.10;;;;;;4938081;29;20480;-65
2024/01/05 11:56:10;;;;;;;2.43;2.43;;;21.10;52.10;;;;;;4937973;29;20501;-65
2024/01/05 11:58:38;;;;;;;2.10;2.10;;;21.10;52.10;;;;;;4938090;29;20475;-64
2024/01/05 12:01:10;;;;;;;2.10;2.10;;;21.10;52.10;;;;;;4937635;29;20488;-64
2024/01/05 12:03:38;;;;;;;2.40;2.30;;;21.10;52.00;;;;;;4938079;29;20952;-64
2024/01/05 12:06:06;;;;;;;2.00;2.00;;;21.10;52.00;;;;;;4937145;29;20477;-64
2024/01/05 12:08:34;;;;;;;2.53;2.43;;;21.10;52.00;;;;;;4937186;29;20893;-65
2024/01/05 12:11:03;;;;;;;2.40;2.20;;;21.10;51.90;;;;;;4936963;29;20826;-65
2024/01/05 12:13:32;;;;;;;2.27;2.27;;;21.10;51.90;;;;;;4936924;29;20489;-64
2024/01/05 12:16:02;;;;;;;2.67;2.47;;;21.10;51.90;;;;;;4936901;29;21028;-64
2024/01/05 12:18:31;;;;;;;2.20;2.20;;;21.10;51.90;;;;;;4936842;29;20876;-65
2024/01/05 12:21:00;;;;;;;2.00;2.00;;;21.10;51.90;;;;;;4936620;29;20504;-64
2024/01/05 12:23:27;;;;;;;2.17;2.17;;;21.10;51.80;;;;;;4935781;29;20442;-65
2024/01/05 12:26:01;;;;;;;2.10;2.10;;;21.10;51.80;;;;;;4936758;29;20497;-65
2024/01/05 12:28:30;;;;;;;2.20;2.20;;;21.10;51.80;;;;;;4936819;29;20457;-65
2024/01/05 12:30:58;;;;;;;2.30;2.30;;;21.10;51.80;;;;;;4936642;29;20815;-64
2024/01/05 12:33:25;;;;;;;2.30;2.30;;;21.10;51.80;;;;;;4936544;29;20445;-64
2024/01/05 12:35:54;;;;;;;2.03;2.03;;;21.00;51.70;;;;;;4936630;29;20508;-64
2024/01/05 12:38:25;;;;;;;2.50;2.50;;;21.10;51.70;;;;;;4936537;29;20450;-64
2024/01/05 12:40:52;;;;;;;2.20;2.20;;;21.00;51.60;;;;;;4936291;29;20524;-64
2024/01/05 12:43:19;;;;;;;2.10;2.10;;;21.00;51.60;;;;;;4936480;29;20764;-64
2024/01/05 12:45:50;;;;;;;2.00;2.00;;;21.00;51.60;;;;;;4936323;29;20465;-64
2024/01/05 12:48:17;;;;;;;2.17;2.17;;;21.00;51.60;;;;;;4936344;29;20536;-64
2024/01/05 12:50:45;;;;;;;2.20;2.20;;;21.00;51.60;;;;;;4936144;29;20452;-64